Terminal Aerodrome Forecast
Issued by NWS Atlanta, GA

Home | Current Version | Previous Version | Text Only | Print | Product List | Glossary On
Versions: 1 2 3 4 5 6 7 8 9 10 11 12 13 14 15 16 17 18 19 20 21 22 23 24 25 26 27 28 29 30 31 32 33
747
FTAK31 PAJN 090700 AAA
TAFAHN
TAF AMD
PAHN 090700Z 0907/1006 15007G15KT 6SM -RA BR BKN010 OVC030
     FM090800 08010G18KT 6SM -RA BR SCT002 BKN015 OVC030
     FM091700 30010KT P6SM VCSH SCT010 BKN025 OVC040
     FM100000 30012KT P6SM SCT025 OVC045
      AMD LTD TO CLD VIS AND WIND=

USA.gov is the U.S. government's official web portal to all federal, state and local government web resources and services.